Portada
METAR-TAF:

METAR-TAF

Aeroports :

Sukhothai, Tailàndia

latitud: 17-14-16N, longitud: 099-49-05E, altitud: 55 m

Observació

L'informe es va fer fa 7 hores i 53 minuts, a les 10:00 UTC
Vent 4 kt del Nord/Nord-Oest
Temperatura 28°C
Humitat 70%
Pressió 1011 hPa
Visibilitat 10 km o més
Cel ennuvolat a una alçada de 2500 ft

METAR: VTPO 101000Z 33004KT 9999 BKN025 28/22 Q1011 NOSIG

Hora: 00:53 (17:53 UTC)

Pronòstic

L'informe es va fer fa 53 minuts, a les 17:00 UTC
Pronòstic vàlid del 10 a les 18 UTC al 11 a les 18 UTC
Vent 5 kt del Oest/Nord-Oest
Visibilitat 10 km o més
Núvols disperses a una alçada de 2500 ft
Evolucionant progressivament
l' 10 a les 21 UTC al 10 a les 23 UTC
Visibilitat: 2000 m
boirina
Evolucionant progressivament
l' 11 a les 01 UTC al 11 a les 03 UTC
Visibilitat 10 km o més

TAF: VTPO 101700Z 1018/1118 30005KT 9999 SCT025 BECMG 1021/1023 2000 BR BECMG 1101/1103 9999 NSW

Observacions i pronòstics meteorològics de més de 4000 aeroports (METAR i TAF).

Les estacions disponibles són els punts grocs i vermells al mapa.

Posi el ratolí al punt desitjat per veure el nom de l'estació.

Feu clic per veure les observacions i els pronòstics meteorològics.

Per canviar el mapa: feu clic els botons verds amb una creu de color negre per apropar; al botó verd amb un guió per allunyar la imatge; o en les fletxes verdes per a mapes adjacents.


METAR-TAF: